createdAt,value
2018-12-31T00:00:08.866Z,3.56
2018-12-31T00:02:37.816Z,3.57
2018-12-31T00:05:06.355Z,3.62
2018-12-31T00:07:34.794Z,3.62
2018-12-31T00:10:03.262Z,3.65
2018-12-31T00:12:31.710Z,3.65
2018-12-31T00:15:00.253Z,3.65
2018-12-31T00:17:28.797Z,3.68
2018-12-31T00:19:57.264Z,3.70
2018-12-31T00:22:25.766Z,3.70
2018-12-31T00:24:54.228Z,3.72
2018-12-31T00:27:22.673Z,3.74
2018-12-31T00:29:51.138Z,3.74
2018-12-31T00:32:19.582Z,3.74
2018-12-31T00:34:48.049Z,3.74
2018-12-31T00:37:16.490Z,3.70
2018-12-31T00:39:44.959Z,3.75
2018-12-31T00:42:13.480Z,3.75
2018-12-31T00:44:41.944Z,3.77
2018-12-31T00:47:10.386Z,3.77
2018-12-31T00:49:38.858Z,3.79
2018-12-31T00:52:07.304Z,3.80
2018-12-31T00:54:35.749Z,3.80
2018-12-31T00:57:04.278Z,3.81
2018-12-31T00:59:32.666Z,3.82
2018-12-31T01:02:01.129Z,3.83
2018-12-31T01:04:29.572Z,3.83
2018-12-31T01:06:58.043Z,3.83
2018-12-31T01:09:26.492Z,3.84
2018-12-31T01:11:54.952Z,3.86
2018-12-31T01:14:23.400Z,3.88
2018-12-31T01:16:51.870Z,3.93
2018-12-31T01:19:20.308Z,3.93
2018-12-31T01:21:48.778Z,3.99
2018-12-31T01:24:17.225Z,4.02
2018-12-31T01:26:45.694Z,4.02
2018-12-31T01:29:14.132Z,4.04
2018-12-31T01:31:42.606Z,4.09
2018-12-31T01:34:11.050Z,4.09
2018-12-31T01:36:39.519Z,4.10
2018-12-31T01:39:07.966Z,4.10
2018-12-31T01:41:36.433Z,4.10
2018-12-31T01:44:04.882Z,4.19
2018-12-31T01:46:33.349Z,4.18
2018-12-31T01:49:01.813Z,4.27
2018-12-31T01:51:30.276Z,4.24
2018-12-31T01:53:58.721Z,4.24
2018-12-31T01:56:27.188Z,4.29
2018-12-31T01:58:55.636Z,4.31
2018-12-31T02:01:24.102Z,4.37
2018-12-31T02:03:52.541Z,4.37
2018-12-31T02:06:20.988Z,4.42
2018-12-31T02:08:49.448Z,4.45
2018-12-31T02:11:17.890Z,4.46
2018-12-31T02:13:46.356Z,4.46
2018-12-31T02:16:14.881Z,4.53
2018-12-31T02:18:43.438Z,4.54
2018-12-31T02:21:11.900Z,4.52
2018-12-31T02:23:40.355Z,4.58
2018-12-31T02:26:08.803Z,4.59
2018-12-31T02:28:37.263Z,4.60
2018-12-31T02:31:05.711Z,4.61
2018-12-31T02:33:34.350Z,4.62
2018-12-31T02:36:02.798Z,4.63
2018-12-31T02:38:31.276Z,4.64
2018-12-31T02:40:59.714Z,4.64
2018-12-31T02:43:28.175Z,4.67
2018-12-31T02:45:56.626Z,4.67
2018-12-31T02:48:25.098Z,4.67
2018-12-31T02:50:53.543Z,4.68
2018-12-31T02:53:22.019Z,4.69
2018-12-31T02:55:50.458Z,4.69
2018-12-31T02:58:18.934Z,4.69
2018-12-31T03:00:47.366Z,4.70
2018-12-31T03:03:15.826Z,4.71
2018-12-31T03:05:44.261Z,4.73
2018-12-31T03:08:12.731Z,4.74
2018-12-31T03:10:41.175Z,4.76
2018-12-31T03:13:09.653Z,4.78
2018-12-31T03:15:38.234Z,4.78
2018-12-31T03:18:06.788Z,4.79
2018-12-31T03:20:35.236Z,4.81
2018-12-31T03:23:03.683Z,4.83
2018-12-31T03:25:32.156Z,4.84
2018-12-31T03:28:00.603Z,4.87
2018-12-31T03:30:29.073Z,4.89
2018-12-31T03:32:57.499Z,4.92
2018-12-31T03:35:25.972Z,4.95
2018-12-31T03:37:54.428Z,4.98
2018-12-31T03:40:22.898Z,5.00
2018-12-31T03:42:51.338Z,5.02
2018-12-31T03:45:19.797Z,5.07
2018-12-31T03:47:48.503Z,5.08
2018-12-31T03:50:16.958Z,5.11
2018-12-31T03:52:45.406Z,5.12
2018-12-31T03:55:13.880Z,5.13
2018-12-31T03:57:42.326Z,5.14
2018-12-31T04:00:10.785Z,5.14
2018-12-31T04:02:39.325Z,5.16
2018-12-31T04:05:07.964Z,5.16
2018-12-31T04:07:36.476Z,5.16
2018-12-31T04:10:05.515Z,5.16
2018-12-31T04:12:33.950Z,5.17
2018-12-31T04:15:02.396Z,5.17
2018-12-31T04:17:30.868Z,5.17
2018-12-31T04:19:59.313Z,5.16
2018-12-31T04:22:27.769Z,5.16
2018-12-31T04:24:56.217Z,5.17
2018-12-31T04:27:24.684Z,5.19
2018-12-31T04:29:53.117Z,5.20
2018-12-31T04:32:21.597Z,5.21
2018-12-31T04:34:50.036Z,5.24
2018-12-31T04:37:18.514Z,5.24
2018-12-31T04:39:48.361Z,5.24
2018-12-31T04:42:16.826Z,5.25
2018-12-31T04:44:45.273Z,5.24
2018-12-31T04:47:13.733Z,5.24
2018-12-31T04:49:42.178Z,5.23
2018-12-31T04:52:10.650Z,5.22
2018-12-31T04:54:39.084Z,5.21
2018-12-31T04:57:07.600Z,5.20
2018-12-31T04:59:36.043Z,5.19
2018-12-31T05:02:04.513Z,5.20
2018-12-31T05:04:32.949Z,5.20
2018-12-31T05:07:01.406Z,5.20
2018-12-31T05:09:29.851Z,5.21
2018-12-31T05:11:58.309Z,5.21
2018-12-31T05:14:26.758Z,5.20
2018-12-31T05:16:55.249Z,5.19
2018-12-31T05:19:23.683Z,5.17
2018-12-31T05:21:52.153Z,5.17
2018-12-31T05:24:20.598Z,5.16
2018-12-31T05:26:49.073Z,5.15
2018-12-31T05:29:17.507Z,5.14
2018-12-31T05:31:45.971Z,5.11
2018-12-31T05:34:14.444Z,5.10
2018-12-31T05:36:42.879Z,5.08
2018-12-31T05:39:11.350Z,5.06
2018-12-31T05:41:39.794Z,5.04
2018-12-31T05:44:08.255Z,5.03
2018-12-31T05:46:36.703Z,5.02
2018-12-31T05:49:05.177Z,5.01
2018-12-31T05:51:33.606Z,5.01
2018-12-31T05:54:02.079Z,5.01
2018-12-31T05:56:30.514Z,5.02
2018-12-31T05:58:58.987Z,5.05
2018-12-31T06:01:27.430Z,5.04
2018-12-31T06:03:55.891Z,5.08
2018-12-31T06:06:24.322Z,5.11
2018-12-31T06:08:52.782Z,5.12
2018-12-31T06:11:21.219Z,5.15
2018-12-31T06:13:49.684Z,5.16
2018-12-31T06:16:18.109Z,5.18
2018-12-31T06:18:46.582Z,5.21
2018-12-31T06:21:15.039Z,5.24
2018-12-31T06:23:43.534Z,5.26
2018-12-31T06:26:11.978Z,5.28
2018-12-31T06:28:40.414Z,5.30
2018-12-31T06:31:08.913Z,5.32
2018-12-31T06:33:37.329Z,5.34
2018-12-31T06:36:05.802Z,5.35
2018-12-31T06:38:34.319Z,5.35
2018-12-31T06:41:02.789Z,5.35
2018-12-31T06:43:31.225Z,5.35
2018-12-31T06:45:59.698Z,5.34
2018-12-31T06:48:28.246Z,5.34
2018-12-31T06:50:56.722Z,5.32
2018-12-31T06:53:25.163Z,5.30
2018-12-31T06:55:53.767Z,5.28
2018-12-31T06:58:22.202Z,5.27
2018-12-31T07:00:50.676Z,5.25
2018-12-31T07:03:19.129Z,5.23
2018-12-31T07:05:47.597Z,5.20
2018-12-31T07:08:16.030Z,5.20
2018-12-31T07:10:44.494Z,5.17
2018-12-31T07:13:12.938Z,5.17
2018-12-31T07:15:41.398Z,5.19
2018-12-31T07:18:13.188Z,5.19
2018-12-31T07:20:41.652Z,5.19
2018-12-31T07:23:10.098Z,5.21
2018-12-31T07:25:38.570Z,5.20
2018-12-31T07:28:07.014Z,5.19
2018-12-31T07:30:35.496Z,5.20
2018-12-31T07:33:03.932Z,5.20
2018-12-31T07:35:32.402Z,5.19
2018-12-31T07:38:00.851Z,5.19
2018-12-31T07:40:29.345Z,5.20
2018-12-31T07:42:57.814Z,5.19
2018-12-31T07:45:26.263Z,5.22
2018-12-31T07:47:54.723Z,5.21
2018-12-31T07:50:23.162Z,5.23
2018-12-31T07:52:51.643Z,5.23
2018-12-31T07:55:20.091Z,5.26
2018-12-31T07:57:48.738Z,5.28
2018-12-31T08:00:17.179Z,5.30
2018-12-31T08:02:45.641Z,5.31
2018-12-31T08:05:14.159Z,5.32
2018-12-31T08:07:42.627Z,5.32
2018-12-31T08:10:11.073Z,5.31
2018-12-31T08:12:39.538Z,5.32
2018-12-31T08:15:07.986Z,5.32
2018-12-31T08:17:36.446Z,5.31
2018-12-31T08:20:05.464Z,5.30
2018-12-31T08:22:33.934Z,5.29
2018-12-31T08:25:02.382Z,5.27
2018-12-31T08:27:30.845Z,5.27
2018-12-31T08:29:59.287Z,5.26
2018-12-31T08:32:27.804Z,5.28
2018-12-31T08:34:56.192Z,5.32
2018-12-31T08:37:24.673Z,5.34
2018-12-31T08:39:53.119Z,5.35
2018-12-31T08:42:21.566Z,5.37
2018-12-31T08:44:50.038Z,5.36
2018-12-31T08:47:18.475Z,5.36
2018-12-31T08:49:46.951Z,5.37
2018-12-31T08:52:15.386Z,5.37
2018-12-31T08:54:49.890Z,5.40
2018-12-31T08:57:18.335Z,5.43
2018-12-31T08:59:46.805Z,5.47
2018-12-31T09:02:16.378Z,5.52
2018-12-31T09:04:44.845Z,5.58
2018-12-31T09:07:13.290Z,5.66
2018-12-31T09:09:41.748Z,5.72
2018-12-31T09:12:10.193Z,5.78
2018-12-31T09:14:38.664Z,5.81
2018-12-31T09:17:07.098Z,5.87
2018-12-31T09:19:35.557Z,5.91
2018-12-31T09:22:04.139Z,5.95
2018-12-31T09:24:32.610Z,6.01
2018-12-31T09:27:01.060Z,6.06
2018-12-31T09:29:29.518Z,6.10
2018-12-31T09:31:57.964Z,6.16
2018-12-31T09:34:26.423Z,6.19
2018-12-31T09:36:54.869Z,6.23
2018-12-31T09:39:23.337Z,6.26
2018-12-31T09:41:53.426Z,6.30
2018-12-31T09:44:22.030Z,6.33
2018-12-31T09:46:50.474Z,6.38
2018-12-31T09:49:18.922Z,6.41
2018-12-31T09:51:47.391Z,6.43
2018-12-31T09:54:15.839Z,6.44
2018-12-31T09:56:44.382Z,6.46
2018-12-31T09:59:12.940Z,6.49
2018-12-31T10:01:41.411Z,6.53
2018-12-31T10:04:09.852Z,6.58
2018-12-31T10:06:38.313Z,6.63
2018-12-31T10:09:07.129Z,6.69
2018-12-31T10:11:35.602Z,6.74
2018-12-31T10:14:04.053Z,6.78
2018-12-31T10:16:32.517Z,6.81
2018-12-31T10:19:03.223Z,6.86
2018-12-31T10:21:31.698Z,6.88
2018-12-31T10:24:00.142Z,6.90
2018-12-31T10:26:28.607Z,6.95
2018-12-31T10:28:57.045Z,6.97
2018-12-31T10:31:25.683Z,7.00
2018-12-31T10:33:54.123Z,7.04
2018-12-31T10:36:22.595Z,7.06
2018-12-31T10:38:51.364Z,7.09
2018-12-31T10:41:19.886Z,7.10
2018-12-31T10:43:48.335Z,7.12
2018-12-31T10:46:16.803Z,7.15
2018-12-31T10:48:45.239Z,7.19
2018-12-31T10:51:13.708Z,7.23
2018-12-31T10:53:42.142Z,7.28
2018-12-31T10:56:10.665Z,7.32
2018-12-31T10:58:39.165Z,7.32
2018-12-31T11:01:07.743Z,7.35
2018-12-31T11:03:36.215Z,7.37
2018-12-31T11:06:04.659Z,7.40
2018-12-31T11:08:33.130Z,7.43
2018-12-31T11:11:01.634Z,7.47
2018-12-31T11:13:30.094Z,7.51
2018-12-31T11:15:58.538Z,7.55
2018-12-31T11:18:27.010Z,7.61
2018-12-31T11:20:55.502Z,7.65
2018-12-31T11:23:23.974Z,7.68
2018-12-31T11:25:52.419Z,7.73
2018-12-31T11:28:20.894Z,7.75
2018-12-31T11:30:49.343Z,7.75
2018-12-31T11:33:17.807Z,7.79
2018-12-31T11:35:46.256Z,7.87
2018-12-31T11:38:14.728Z,7.97
2018-12-31T11:40:43.174Z,8.08
2018-12-31T11:43:11.634Z,8.18
2018-12-31T11:45:40.078Z,8.27
2018-12-31T11:48:11.667Z,8.34
2018-12-31T11:50:40.716Z,8.35
2018-12-31T11:53:09.173Z,8.37
2018-12-31T11:55:37.621Z,8.37
2018-12-31T11:58:06.092Z,8.39
2018-12-31T12:00:34.745Z,8.40
2018-12-31T12:03:03.213Z,8.41
2018-12-31T12:05:31.773Z,8.42
2018-12-31T12:08:00.225Z,8.42
2018-12-31T12:10:28.675Z,8.44
2018-12-31T12:12:57.143Z,8.44
2018-12-31T12:15:25.579Z,8.48
2018-12-31T12:17:54.075Z,8.50
2018-12-31T12:20:22.521Z,8.53
2018-12-31T12:22:50.954Z,8.54
2018-12-31T12:25:19.429Z,8.55
2018-12-31T12:27:47.856Z,8.56
2018-12-31T12:30:16.327Z,8.56
2018-12-31T12:32:44.779Z,8.56
2018-12-31T12:35:13.230Z,8.56
2018-12-31T12:37:48.254Z,8.54
2018-12-31T12:40:11.871Z,8.53
2018-12-31T12:42:40.322Z,8.50
2018-12-31T12:45:08.797Z,8.48
2018-12-31T12:47:37.240Z,8.46
2018-12-31T12:50:06.079Z,8.44
2018-12-31T12:52:34.508Z,8.43
2018-12-31T12:55:02.967Z,8.44
2018-12-31T12:57:31.687Z,8.42
2018-12-31T13:00:00.183Z,8.39
2018-12-31T13:02:28.597Z,8.37
2018-12-31T13:05:03.540Z,8.35
2018-12-31T13:07:27.292Z,8.36
2018-12-31T13:09:55.924Z,8.39
2018-12-31T13:12:24.366Z,8.41
2018-12-31T13:14:52.837Z,8.46
2018-12-31T13:17:21.282Z,8.51
2018-12-31T13:19:49.755Z,8.55
2018-12-31T13:22:18.570Z,8.56
2018-12-31T13:24:47.035Z,8.56
2018-12-31T13:27:15.477Z,8.55
2018-12-31T13:29:43.947Z,8.55
2018-12-31T13:32:12.391Z,8.54
2018-12-31T13:34:41.238Z,8.54
2018-12-31T13:37:09.683Z,8.53
2018-12-31T13:39:38.123Z,8.52
2018-12-31T13:42:06.694Z,8.51
2018-12-31T13:44:35.139Z,8.50
2018-12-31T13:47:03.598Z,8.49
2018-12-31T13:49:32.043Z,8.49
2018-12-31T13:52:00.521Z,8.50
2018-12-31T13:54:28.961Z,8.50
2018-12-31T13:56:59.192Z,8.49
2018-12-31T13:59:27.633Z,8.48
2018-12-31T14:01:56.096Z,8.49
2018-12-31T14:04:24.549Z,8.48
2018-12-31T14:06:53.132Z,8.48
2018-12-31T14:09:21.566Z,8.46
2018-12-31T14:11:50.034Z,8.44
2018-12-31T14:14:18.483Z,8.42
2018-12-31T14:16:46.949Z,8.42
2018-12-31T14:19:15.395Z,8.40
2018-12-31T14:21:43.860Z,8.38
2018-12-31T14:24:12.305Z,8.35
2018-12-31T14:26:40.780Z,8.30
2018-12-31T14:29:09.227Z,8.28
2018-12-31T14:31:37.681Z,8.25
2018-12-31T14:34:06.206Z,8.23
2018-12-31T14:36:34.646Z,8.19
2018-12-31T14:39:04.278Z,8.17
2018-12-31T14:41:32.723Z,8.14
2018-12-31T14:44:01.182Z,8.13
2018-12-31T14:46:29.614Z,8.12
2018-12-31T14:48:58.073Z,8.11
2018-12-31T14:51:26.802Z,8.10
2018-12-31T14:53:55.271Z,8.09
2018-12-31T14:56:23.714Z,8.08
2018-12-31T14:58:52.193Z,8.07
2018-12-31T15:01:20.637Z,8.06
2018-12-31T15:03:49.469Z,8.08
2018-12-31T15:06:17.913Z,8.11
2018-12-31T15:08:46.376Z,8.10
2018-12-31T15:11:14.810Z,8.09
2018-12-31T15:13:43.274Z,8.09
2018-12-31T15:16:12.097Z,8.07
2018-12-31T15:18:40.567Z,8.05
2018-12-31T15:21:09.010Z,8.03
2018-12-31T15:23:37.469Z,8.01
2018-12-31T15:26:05.902Z,8.00
2018-12-31T15:28:34.361Z,7.99
2018-12-31T15:31:02.806Z,7.98
2018-12-31T15:33:31.283Z,7.98
2018-12-31T15:35:59.796Z,7.97
2018-12-31T15:38:28.266Z,7.96
2018-12-31T15:40:56.765Z,7.95
2018-12-31T15:43:25.238Z,7.93
2018-12-31T15:45:53.692Z,7.90
2018-12-31T15:48:22.146Z,7.88
2018-12-31T15:50:50.607Z,7.88
2018-12-31T15:53:19.056Z,7.87
2018-12-31T15:55:47.712Z,7.85
2018-12-31T15:58:16.165Z,7.85
2018-12-31T16:00:44.654Z,7.86
2018-12-31T16:03:13.096Z,7.84
2018-12-31T16:05:41.581Z,7.83
2018-12-31T16:08:10.402Z,7.83
2018-12-31T16:10:38.892Z,7.83
2018-12-31T16:13:07.335Z,7.85
2018-12-31T16:15:35.806Z,7.85
2018-12-31T16:18:05.826Z,7.86
2018-12-31T16:20:34.395Z,7.87
2018-12-31T16:23:02.844Z,7.89
2018-12-31T16:25:31.323Z,7.91
2018-12-31T16:27:59.906Z,7.92
2018-12-31T16:30:28.385Z,7.94
2018-12-31T16:32:56.836Z,7.96
2018-12-31T16:35:25.310Z,7.96
2018-12-31T16:37:53.751Z,7.97
2018-12-31T16:40:22.547Z,7.99
2018-12-31T16:42:50.993Z,8.02
2018-12-31T16:45:19.469Z,8.04
2018-12-31T16:47:48.210Z,8.07
2018-12-31T16:50:16.682Z,8.09
2018-12-31T16:52:45.140Z,8.10
2018-12-31T16:55:13.608Z,8.10
2018-12-31T16:57:42.060Z,8.11
2018-12-31T17:00:10.916Z,8.12
2018-12-31T17:02:39.357Z,8.12
2018-12-31T17:05:07.808Z,8.12
2018-12-31T17:07:36.271Z,8.11
2018-12-31T17:10:07.264Z,8.12
2018-12-31T17:12:35.870Z,8.12
2018-12-31T17:15:05.650Z,8.12
2018-12-31T17:17:34.110Z,8.14
2018-12-31T17:20:02.564Z,8.14
2018-12-31T17:22:31.034Z,8.16
2018-12-31T17:24:59.471Z,8.15
2018-12-31T17:27:27.935Z,8.16
2018-12-31T17:29:56.385Z,8.16
2018-12-31T17:32:24.860Z,8.14
2018-12-31T17:34:53.307Z,8.15
2018-12-31T17:37:21.783Z,8.14
2018-12-31T17:39:50.448Z,8.16
2018-12-31T17:42:18.929Z,8.16
2018-12-31T17:44:47.385Z,8.15
2018-12-31T17:47:15.846Z,8.16
2018-12-31T17:49:44.296Z,8.17
2018-12-31T17:52:13.138Z,8.17
2018-12-31T17:54:41.595Z,8.18
2018-12-31T17:57:10.160Z,8.17
2018-12-31T17:59:38.584Z,8.19
2018-12-31T18:02:07.060Z,8.18
2018-12-31T18:04:35.498Z,8.19
2018-12-31T18:07:04.089Z,8.19
2018-12-31T18:09:32.527Z,8.18
2018-12-31T18:12:01.004Z,8.18
2018-12-31T18:14:29.452Z,8.18
2018-12-31T18:16:57.948Z,8.18
2018-12-31T18:19:26.397Z,8.18
2018-12-31T18:21:54.834Z,8.17
2018-12-31T18:24:23.319Z,8.18
2018-12-31T18:26:51.767Z,8.18
2018-12-31T18:29:20.239Z,8.20
2018-12-31T18:31:49.067Z,8.19
2018-12-31T18:34:17.545Z,8.21
2018-12-31T18:36:45.997Z,8.23
2018-12-31T18:39:14.471Z,8.23
2018-12-31T18:41:42.921Z,8.24
2018-12-31T18:44:11.571Z,8.25
2018-12-31T18:46:40.031Z,8.27
2018-12-31T18:49:08.495Z,8.27
2018-12-31T18:51:36.947Z,8.31
2018-12-31T18:54:05.433Z,8.32
2018-12-31T18:56:33.876Z,8.36
2018-12-31T18:59:02.364Z,8.37
2018-12-31T19:01:30.817Z,8.39
2018-12-31T19:03:59.297Z,8.41
2018-12-31T19:06:27.753Z,8.42
2018-12-31T19:08:56.226Z,8.44
2018-12-31T19:11:24.957Z,8.48
2018-12-31T19:13:53.436Z,8.48
2018-12-31T19:16:21.891Z,8.49
2018-12-31T19:18:50.373Z,8.50
2018-12-31T19:21:18.829Z,8.50
2018-12-31T19:23:47.295Z,8.50
2018-12-31T19:26:15.833Z,8.49
2018-12-31T19:28:44.400Z,8.49
2018-12-31T19:31:12.858Z,8.49
2018-12-31T19:33:41.329Z,8.48
2018-12-31T19:36:09.784Z,8.48
2018-12-31T19:38:38.240Z,8.46
2018-12-31T19:41:06.721Z,8.46
2018-12-31T19:43:35.177Z,8.46
2018-12-31T19:46:03.652Z,8.47
2018-12-31T19:48:32.096Z,8.47
2018-12-31T19:51:00.851Z,8.44
2018-12-31T19:53:29.408Z,8.46
2018-12-31T19:55:58.042Z,8.46
2018-12-31T19:58:26.942Z,8.45
2018-12-31T20:00:55.461Z,8.45
2018-12-31T20:03:23.896Z,8.44
2018-12-31T20:05:52.372Z,8.45
2018-12-31T20:08:20.821Z,8.45
2018-12-31T20:10:49.333Z,8.47
2018-12-31T20:13:17.776Z,8.47
2018-12-31T20:15:48.713Z,8.49
2018-12-31T20:18:16.427Z,8.51
2018-12-31T20:20:44.899Z,8.54
2018-12-31T20:23:13.354Z,8.56
2018-12-31T20:25:41.829Z,8.59
2018-12-31T20:28:10.275Z,8.61
2018-12-31T20:30:39.127Z,8.64
2018-12-31T20:33:07.569Z,8.66
2018-12-31T20:35:36.050Z,8.69
2018-12-31T20:38:04.500Z,8.71
2018-12-31T20:40:32.952Z,8.73
2018-12-31T20:43:01.424Z,8.74
2018-12-31T20:45:30.140Z,8.76
2018-12-31T20:48:01.954Z,8.77
2018-12-31T20:50:28.793Z,8.79
2018-12-31T20:52:57.267Z,8.80
2018-12-31T20:55:26.802Z,8.81
2018-12-31T20:57:55.455Z,8.83
2018-12-31T21:00:23.942Z,8.83
2018-12-31T21:02:52.420Z,8.84
2018-12-31T21:05:20.868Z,8.85
2018-12-31T21:07:49.345Z,8.87
2018-12-31T21:10:17.800Z,8.86
2018-12-31T21:12:46.557Z,8.88
2018-12-31T21:15:16.340Z,8.89
2018-12-31T21:17:44.960Z,8.89
2018-12-31T21:20:13.402Z,8.91
2018-12-31T21:22:41.874Z,8.90
2018-12-31T21:25:10.310Z,8.92
2018-12-31T21:27:38.786Z,8.92
2018-12-31T21:30:09.976Z,8.93
2018-12-31T21:32:38.447Z,8.93
2018-12-31T21:35:07.736Z,8.96
2018-12-31T21:37:36.207Z,8.96
2018-12-31T21:40:07.194Z,8.97
2018-12-31T21:42:35.660Z,8.99
2018-12-31T21:45:04.788Z,8.99
2018-12-31T21:47:33.264Z,9.00
2018-12-31T21:50:01.714Z,9.00
2018-12-31T21:52:30.192Z,9.01
2018-12-31T21:54:58.638Z,9.01
2018-12-31T21:57:27.092Z,9.01
2018-12-31T21:59:55.560Z,9.02
2018-12-31T22:02:24.008Z,9.02
2018-12-31T22:04:52.562Z,9.02
2018-12-31T22:07:21.016Z,9.03
2018-12-31T22:09:49.482Z,9.02
2018-12-31T22:12:17.931Z,9.01
2018-12-31T22:14:46.409Z,9.00
2018-12-31T22:17:14.860Z,8.97
2018-12-31T22:19:43.339Z,8.97
2018-12-31T22:22:11.790Z,8.97
2018-12-31T22:24:40.268Z,8.96
2018-12-31T22:27:08.716Z,8.97
2018-12-31T22:29:39.456Z,8.97
2018-12-31T22:32:08.083Z,8.98
2018-12-31T22:34:36.555Z,8.98
2018-12-31T22:37:05.008Z,8.98
2018-12-31T22:39:33.485Z,8.98
2018-12-31T22:42:01.937Z,8.98
2018-12-31T22:44:30.543Z,8.98
2018-12-31T22:46:58.996Z,8.97
2018-12-31T22:49:27.473Z,8.98
2018-12-31T22:51:55.911Z,8.98
2018-12-31T22:54:24.377Z,8.99
2018-12-31T22:56:52.815Z,8.98
2018-12-31T22:59:21.294Z,8.97
2018-12-31T23:01:49.810Z,8.98
2018-12-31T23:04:18.271Z,8.99
2018-12-31T23:06:46.753Z,8.99
2018-12-31T23:09:15.209Z,9.00
2018-12-31T23:11:43.689Z,9.00
2018-12-31T23:14:12.150Z,9.00
2018-12-31T23:16:40.624Z,9.01
2018-12-31T23:19:09.073Z,9.01
2018-12-31T23:21:37.545Z,9.00
2018-12-31T23:24:06.484Z,9.00
2018-12-31T23:26:34.973Z,9.00
2018-12-31T23:29:04.960Z,9.00
2018-12-31T23:31:33.445Z,8.99
2018-12-31T23:34:02.073Z,9.00
2018-12-31T23:36:30.552Z,8.99
2018-12-31T23:39:05.231Z,8.98
2018-12-31T23:41:29.242Z,8.97
2018-12-31T23:43:57.698Z,8.96
2018-12-31T23:46:26.181Z,8.95
2018-12-31T23:48:54.631Z,8.95
2018-12-31T23:51:23.112Z,8.94
2018-12-31T23:53:51.563Z,8.95
2018-12-31T23:56:20.035Z,8.95
2018-12-31T23:58:48.507Z,8.95
